sensor_id;sensor_type;location;lat;lon;timestamp;pressure;altitude;pressure_sealevel;temperature;humidity
82951;BME280;72737;53.332;6.514;2024-03-29T00:01:47;98910.03;;;14.69;58.07
82951;BME280;72737;53.332;6.514;2024-03-29T00:04:12;98909.94;;;14.65;58.00
82951;BME280;72737;53.332;6.514;2024-03-29T00:06:37;98918.72;;;14.71;57.93
82951;BME280;72737;53.332;6.514;2024-03-29T00:09:03;98910.03;;;14.69;57.86
82951;BME280;72737;53.332;6.514;2024-03-29T00:11:28;98913.47;;;14.66;57.76
82951;BME280;72737;53.332;6.514;2024-03-29T00:13:54;98913.47;;;14.66;57.93
82951;BME280;72737;53.332;6.514;2024-03-29T00:16:20;98913.47;;;14.66;58.08
82951;BME280;72737;53.332;6.514;2024-03-29T00:18:47;98911.88;;;14.65;58.06
82951;BME280;72737;53.332;6.514;2024-03-29T00:21:13;98916.22;;;14.66;57.97
82951;BME280;72737;53.332;6.514;2024-03-29T00:23:39;98922.47;;;14.66;57.59
82951;BME280;72737;53.332;6.514;2024-03-29T00:26:05;98920.06;;;14.65;57.86
82951;BME280;72737;53.332;6.514;2024-03-29T00:28:30;98928.06;;;14.57;58.07
82951;BME280;72737;53.332;6.514;2024-03-29T00:30:56;98933.31;;;14.63;57.64
82951;BME280;72737;53.332;6.514;2024-03-29T00:33:21;98929.31;;;14.60;57.63
82951;BME280;72737;53.332;6.514;2024-03-29T00:35:47;98933.31;;;14.63;57.62
82951;BME280;72737;53.332;6.514;2024-03-29T00:38:13;98937.97;;;14.62;57.59
82951;BME280;72737;53.332;6.514;2024-03-29T00:40:39;98939.44;;;14.59;57.85
82951;BME280;72737;53.332;6.514;2024-03-29T00:43:04;98935.47;;;14.57;58.16
82951;BME280;72737;53.332;6.514;2024-03-29T00:45:30;98933.88;;;14.56;58.32
82951;BME280;72737;53.332;6.514;2024-03-29T00:47:55;98941.03;;;14.60;58.79
82951;BME280;72737;53.332;6.514;2024-03-29T00:50:21;98933.19;;;14.59;58.66
82951;BME280;72737;53.332;6.514;2024-03-29T00:52:46;98939.00;;;14.57;58.85
82951;BME280;72737;53.332;6.514;2024-03-29T00:55:13;98941.75;;;14.57;58.26
82951;BME280;72737;53.332;6.514;2024-03-29T00:57:38;98943.56;;;14.53;58.86
82951;BME280;72737;53.332;6.514;2024-03-29T01:00:05;98937.63;;;14.51;58.91
82951;BME280;72737;53.332;6.514;2024-03-29T01:02:31;98940.38;;;14.51;59.02
82951;BME280;72737;53.332;6.514;2024-03-29T01:04:56;98933.78;;;14.52;59.10
82951;BME280;72737;53.332;6.514;2024-03-29T01:07:22;98941.97;;;14.52;59.24
82951;BME280;72737;53.332;6.514;2024-03-29T01:09:47;98941.59;;;14.54;58.76
82951;BME280;72737;53.332;6.514;2024-03-29T01:12:13;98943.19;;;14.55;59.09
82951;BME280;72737;53.332;6.514;2024-03-29T01:14:39;98938.44;;;14.52;59.01
82951;BME280;72737;53.332;6.514;2024-03-29T01:17:04;98943.19;;;14.55;59.20
82951;BME280;72737;53.332;6.514;2024-03-29T01:19:32;98944.00;;;14.55;59.27
82951;BME280;72737;53.332;6.514;2024-03-29T01:21:57;98947.88;;;14.54;59.43
82951;BME280;72737;53.332;6.514;2024-03-29T01:24:23;98945.13;;;14.54;59.67
82951;BME280;72737;53.332;6.514;2024-03-29T01:26:49;98941.59;;;14.54;59.85
82951;BME280;72737;53.332;6.514;2024-03-29T01:29:15;98940.13;;;14.56;59.46
82951;BME280;72737;53.332;6.514;2024-03-29T01:31:42;98941.28;;;14.55;59.75
82951;BME280;72737;53.332;6.514;2024-03-29T01:34:08;98947.06;;;14.54;59.97
82951;BME280;72737;53.332;6.514;2024-03-29T01:36:33;98943.19;;;14.55;59.59
82951;BME280;72737;53.332;6.514;2024-03-29T01:38:59;98945.13;;;14.54;59.34
82951;BME280;72737;53.332;6.514;2024-03-29T01:41:26;98944.22;;;14.50;59.85
82951;BME280;72737;53.332;6.514;2024-03-29T01:43:53;98944.69;;;14.52;59.40
82951;BME280;72737;53.332;6.514;2024-03-29T01:46:20;98959.97;;;14.53;59.97
82951;BME280;72737;53.332;6.514;2024-03-29T01:48:46;98959.97;;;14.53;60.00
82951;BME280;72737;53.332;6.514;2024-03-29T01:51:13;98960.41;;;14.55;59.77
82951;BME280;72737;53.332;6.514;2024-03-29T01:53:39;98957.34;;;14.57;59.46
82951;BME280;72737;53.332;6.514;2024-03-29T01:56:05;98954.94;;;14.55;60.19
82951;BME280;72737;53.332;6.514;2024-03-29T01:58:32;98960.50;;;14.59;59.99
82951;BME280;72737;53.332;6.514;2024-03-29T02:01:00;98954.28;;;14.58;59.97
82951;BME280;72737;53.332;6.514;2024-03-29T02:03:26;98944.09;;;14.59;59.83
82951;BME280;72737;53.332;6.514;2024-03-29T02:05:52;98941.84;;;14.61;60.04
82951;BME280;72737;53.332;6.514;2024-03-29T02:08:18;98944.91;;;14.59;59.95
82951;BME280;72737;53.332;6.514;2024-03-29T02:10:47;98939.09;;;14.61;59.70
82951;BME280;72737;53.332;6.514;2024-03-29T02:13:13;98941.94;;;14.65;60.36
82951;BME280;72737;53.332;6.514;2024-03-29T02:15:40;98929.44;;;14.64;60.18
82951;BME280;72737;53.332;6.514;2024-03-29T02:18:06;98936.16;;;14.66;60.34
82951;BME280;72737;53.332;6.514;2024-03-29T02:20:32;98938.53;;;14.68;60.22
82951;BME280;72737;53.332;6.514;2024-03-29T02:23:19;98931.47;;;14.67;60.35
82951;BME280;72737;53.332;6.514;2024-03-29T02:25:45;98930.34;;;14.68;60.30
82951;BME280;72737;53.332;6.514;2024-03-29T02:28:11;98932.72;;;14.69;59.75
82951;BME280;72737;53.332;6.514;2024-03-29T02:30:37;98922.56;;;14.70;59.96
82951;BME280;72737;53.332;6.514;2024-03-29T02:33:04;98930.44;;;14.71;59.89
82951;BME280;72737;53.332;6.514;2024-03-29T02:35:30;98931.25;;;14.72;59.64
82951;BME280;72737;53.332;6.514;2024-03-29T02:37:56;98921.91;;;14.73;60.18
82951;BME280;72737;53.332;6.514;2024-03-29T02:40:22;98926.22;;;14.74;59.62
82951;BME280;72737;53.332;6.514;2024-03-29T02:42:48;98930.53;;;14.75;59.53
82951;BME280;72737;53.332;6.514;2024-03-29T02:45:14;98938.75;;;14.75;60.01
82951;BME280;72737;53.332;6.514;2024-03-29T02:47:39;98938.41;;;14.76;59.70
82951;BME280;72737;53.332;6.514;2024-03-29T02:50:06;98941.16;;;14.76;59.93
82951;BME280;72737;53.332;6.514;2024-03-29T02:52:32;98934.53;;;14.77;59.86
82951;BME280;72737;53.332;6.514;2024-03-29T02:54:57;98936.47;;;14.77;60.02
82951;BME280;72737;53.332;6.514;2024-03-29T02:57:22;98933.03;;;14.80;59.92
82951;BME280;72737;53.332;6.514;2024-03-29T02:59:50;98933.84;;;14.80;59.86
82951;BME280;72737;53.332;6.514;2024-03-29T03:02:16;98936.69;;;14.84;59.86
82951;BME280;72737;53.332;6.514;2024-03-29T03:04:42;98932.38;;;14.83;59.78
82951;BME280;72737;53.332;6.514;2024-03-29T03:07:07;98925.97;;;14.79;60.09
82951;BME280;72737;53.332;6.514;2024-03-29T03:09:51;98933.94;;;14.84;59.65
82951;BME280;72737;53.332;6.514;2024-03-29T03:12:35;98922.66;;;14.85;59.85
82951;BME280;72737;53.332;6.514;2024-03-29T03:15:00;98926.53;;;14.84;59.85
82951;BME280;72737;53.332;6.514;2024-03-29T03:17:26;98916.88;;;14.87;60.06
82951;BME280;72737;53.332;6.514;2024-03-29T03:19:52;98919.59;;;14.87;59.61
82951;BME280;72737;53.332;6.514;2024-03-29T03:22:17;98914.56;;;14.89;59.50
82951;BME280;72737;53.332;6.514;2024-03-29T03:24:43;98916.06;;;14.86;60.01
82951;BME280;72737;53.332;6.514;2024-03-29T03:27:09;98924.72;;;14.88;60.10
82951;BME280;72737;53.332;6.514;2024-03-29T03:29:34;98941.56;;;14.90;59.38
82951;BME280;72737;53.332;6.514;2024-03-29T03:31:59;98952.19;;;14.92;59.48
82951;BME280;72737;53.332;6.514;2024-03-29T03:34:25;98958.47;;;14.92;59.67
82951;BME280;72737;53.332;6.514;2024-03-29T03:36:50;98957.66;;;14.92;59.80
82951;BME280;72737;53.332;6.514;2024-03-29T03:39:18;98971.75;;;14.94;59.77
82951;BME280;72737;53.332;6.514;2024-03-29T03:41:43;98967.47;;;14.93;59.43
82951;BME280;72737;53.332;6.514;2024-03-29T03:44:08;98962.41;;;14.95;59.84
82951;BME280;72737;53.332;6.514;2024-03-29T03:46:34;98959.69;;;14.95;59.78
82951;BME280;72737;53.332;6.514;2024-03-29T03:48:59;98965.16;;;14.95;59.27
82951;BME280;72737;53.332;6.514;2024-03-29T03:51:25;98967.09;;;14.94;59.44
82951;BME280;72737;53.332;6.514;2024-03-29T03:53:51;98958.56;;;14.96;59.43
82951;BME280;72737;53.332;6.514;2024-03-29T03:56:16;98940.53;;;14.95;59.41
82951;BME280;72737;53.332;6.514;2024-03-29T03:58:44;98952.28;;;14.95;59.44
82951;BME280;72737;53.332;6.514;2024-03-29T04:01:11;98949.22;;;14.97;59.73
82951;BME280;72737;53.332;6.514;2024-03-29T04:03:37;98958.56;;;14.96;59.78
82951;BME280;72737;53.332;6.514;2024-03-29T04:06:05;98963.22;;;14.95;59.56
82951;BME280;72737;53.332;6.514;2024-03-29T04:08:30;98965.28;;;14.98;59.80
82951;BME280;72737;53.332;6.514;2024-03-29T04:10:57;98963.69;;;14.97;59.60
82951;BME280;72737;53.332;6.514;2024-03-29T04:13:23;98970.41;;;15.00;59.55
82951;BME280;72737;53.332;6.514;2024-03-29T04:15:49;98975.88;;;15.00;59.20
82951;BME280;72737;53.332;6.514;2024-03-29T04:18:14;98972.00;;;15.01;59.46
82951;BME280;72737;53.332;6.514;2024-03-29T04:20:40;98966.53;;;15.01;59.60
82951;BME280;72737;53.332;6.514;2024-03-29T04:23:06;98969.25;;;15.01;59.98
82951;BME280;72737;53.332;6.514;2024-03-29T04:25:32;98962.66;;;15.02;59.87
82951;BME280;72737;53.332;6.514;2024-03-29T04:27:58;98958.66;;;14.99;59.39
82951;BME280;72737;53.332;6.514;2024-03-29T04:30:24;98962.66;;;15.02;59.36
82951;BME280;72737;53.332;6.514;2024-03-29T04:32:49;98972.00;;;15.01;59.20
82951;BME280;72737;53.332;6.514;2024-03-29T04:35:16;98975.19;;;15.03;59.10
82951;BME280;72737;53.332;6.514;2024-03-29T04:37:41;98970.84;;;15.02;59.25
82951;BME280;72737;53.332;6.514;2024-03-29T04:40:07;98965.38;;;15.02;59.41
82951;BME280;72737;53.332;6.514;2024-03-29T04:42:33;98952.84;;;15.01;59.38
82951;BME280;72737;53.332;6.514;2024-03-29T04:45:00;98968.13;;;15.02;59.08
82951;BME280;72737;53.332;6.514;2024-03-29T04:47:26;98960.34;;;15.04;58.93
82951;BME280;72737;53.332;6.514;2024-03-29T04:49:51;98963.44;;;15.02;59.17
82951;BME280;72737;53.332;6.514;2024-03-29T04:52:17;98961.38;;;14.99;59.15
82951;BME280;72737;53.332;6.514;2024-03-29T04:54:42;98966.19;;;15.02;58.75
82951;BME280;72737;53.332;6.514;2024-03-29T04:57:09;98974.72;;;15.01;59.11
82951;BME280;72737;53.332;6.514;2024-03-29T04:59:34;98965.38;;;15.02;58.86
82951;BME280;72737;53.332;6.514;2024-03-29T05:02:00;98974.41;;;15.02;59.27
82951;BME280;72737;53.332;6.514;2024-03-29T05:04:26;98966.53;;;15.01;58.98
82951;BME280;72737;53.332;6.514;2024-03-29T05:06:54;98979.88;;;15.02;58.72
82951;BME280;72737;53.332;6.514;2024-03-29T05:09:21;98971.66;;;15.02;58.94
82951;BME280;72737;53.332;6.514;2024-03-29T05:11:47;98968.94;;;15.02;59.31
82951;BME280;72737;53.332;6.514;2024-03-29T05:14:17;98976.75;;;15.04;59.16
82951;BME280;72737;53.332;6.514;2024-03-29T05:16:46;98969.72;;;15.03;58.90
82951;BME280;72737;53.332;6.514;2024-03-29T05:19:12;98973.25;;;15.03;58.76
82951;BME280;72737;53.332;6.514;2024-03-29T05:21:39;98968.94;;;15.02;59.31
82951;BME280;72737;53.332;6.514;2024-03-29T05:24:05;98974.41;;;15.02;58.60
82951;BME280;72737;53.332;6.514;2024-03-29T05:26:31;98970.84;;;15.02;58.99
82951;BME280;72737;53.332;6.514;2024-03-29T05:28:57;98967.66;;;15.00;59.05
82951;BME280;72737;53.332;6.514;2024-03-29T05:31:24;98972.78;;;15.01;59.06
82951;BME280;72737;53.332;6.514;2024-03-29T05:33:50;98981.00;;;15.01;59.02
82951;BME280;72737;53.332;6.514;2024-03-29T05:36:15;98981.00;;;15.01;59.04
82951;BME280;72737;53.332;6.514;2024-03-29T05:38:40;98984.53;;;15.02;58.84
82951;BME280;72737;53.332;6.514;2024-03-29T05:41:07;98984.53;;;15.02;58.75
82951;BME280;72737;53.332;6.514;2024-03-29T05:43:32;98992.75;;;15.02;58.94
82951;BME280;72737;53.332;6.514;2024-03-29T05:45:59;98985.34;;;15.02;58.93
82951;BME280;72737;53.332;6.514;2024-03-29T05:48:29;98992.75;;;15.02;59.34
82951;BME280;72737;53.332;6.514;2024-03-29T05:50:56;98994.69;;;15.01;59.07
82951;BME280;72737;53.332;6.514;2024-03-29T05:53:21;98996.28;;;15.02;58.96
82951;BME280;72737;53.332;6.514;2024-03-29T05:55:52;98989.66;;;15.03;59.39
82951;BME280;72737;53.332;6.514;2024-03-29T05:58:19;99004.13;;;15.04;59.16
82951;BME280;72737;53.332;6.514;2024-03-29T06:00:46;98997.88;;;15.03;59.30
82951;BME280;72737;53.332;6.514;2024-03-29T06:03:12;98998.22;;;15.02;59.28
82951;BME280;72737;53.332;6.514;2024-03-29T06:05:39;99007.31;;;15.06;58.98
82951;BME280;72737;53.332;6.514;2024-03-29T06:08:05;99005.06;;;15.08;59.57
82951;BME280;72737;53.332;6.514;2024-03-29T06:10:31;99013.69;;;15.10;59.94
82951;BME280;72737;53.332;6.514;2024-03-29T06:12:57;99012.22;;;15.13;59.16
82951;BME280;72737;53.332;6.514;2024-03-29T06:15:32;99022.22;;;15.21;58.52
82951;BME280;72737;53.332;6.514;2024-03-29T06:18:22;99021.66;;;15.15;58.98
82951;BME280;72737;53.332;6.514;2024-03-29T06:20:47;99016.91;;;15.12;59.10
82951;BME280;72737;53.332;6.514;2024-03-29T06:23:13;99018.03;;;15.11;58.92
82951;BME280;72737;53.332;6.514;2024-03-29T06:25:39;99014.81;;;15.09;58.63
82951;BME280;72737;53.332;6.514;2024-03-29T06:28:07;99027.75;;;15.09;58.33
82951;BME280;72737;53.332;6.514;2024-03-29T06:30:32;99030.09;;;15.10;58.48
82951;BME280;72737;53.332;6.514;2024-03-29T06:33:00;99035.59;;;15.10;58.43
82951;BME280;72737;53.332;6.514;2024-03-29T06:35:28;99039.91;;;15.11;57.92
82951;BME280;72737;53.332;6.514;2024-03-29T06:37:53;99032.03;;;15.10;57.84
82951;BME280;72737;53.332;6.514;2024-03-29T06:40:20;99036.38;;;15.11;57.81
82951;BME280;72737;53.332;6.514;2024-03-29T06:42:45;99036.38;;;15.11;58.28
82951;BME280;72737;53.332;6.514;2024-03-29T06:45:12;99036.38;;;15.11;57.86
82951;BME280;72737;53.332;6.514;2024-03-29T06:47:44;99045.72;;;15.10;57.72
82951;BME280;72737;53.332;6.514;2024-03-29T06:50:09;99044.94;;;15.09;57.81
82951;BME280;72737;53.332;6.514;2024-03-29T06:52:35;99046.09;;;15.08;57.72
82951;BME280;72737;53.332;6.514;2024-03-29T06:55:06;99046.09;;;15.08;57.74
82951;BME280;72737;53.332;6.514;2024-03-29T06:57:32;99048.03;;;15.08;57.23
82951;BME280;72737;53.332;6.514;2024-03-29T06:59:58;99051.91;;;15.07;57.40
82951;BME280;72737;53.332;6.514;2024-03-29T07:02:23;99051.19;;;15.10;57.33
82951;BME280;72737;53.332;6.514;2024-03-29T07:04:49;99063.41;;;15.12;57.25
82951;BME280;72737;53.332;6.514;2024-03-29T07:07:15;99063.41;;;15.12;57.38
82951;BME280;72737;53.332;6.514;2024-03-29T07:09:40;99066.16;;;15.12;57.15
82951;BME280;72737;53.332;6.514;2024-03-29T07:12:06;99062.28;;;15.13;57.20
82951;BME280;72737;53.332;6.514;2024-03-29T07:14:31;99080.63;;;15.13;57.02
82951;BME280;72737;53.332;6.514;2024-03-29T07:16:58;99075.81;;;15.10;57.46
82951;BME280;72737;53.332;6.514;2024-03-29T07:19:24;99075.00;;;15.09;56.88
82951;BME280;72737;53.332;6.514;2024-03-29T07:21:50;99079.34;;;15.10;57.27
82951;BME280;72737;53.332;6.514;2024-03-29T07:24:20;99080.16;;;15.11;57.03
82951;BME280;72737;53.332;6.514;2024-03-29T07:26:46;99094.16;;;15.09;57.46
82951;BME280;72737;53.332;6.514;2024-03-29T07:29:12;99078.56;;;15.10;57.15
82951;BME280;72737;53.332;6.514;2024-03-29T07:31:37;99084.38;;;15.08;57.81
82951;BME280;72737;53.332;6.514;2024-03-29T07:34:04;99078.44;;;15.06;57.18
82951;BME280;72737;53.332;6.514;2024-03-29T07:36:29;99076.84;;;15.05;57.25
82951;BME280;72737;53.332;6.514;2024-03-29T07:39:02;99085.19;;;15.09;57.30
82951;BME280;72737;53.332;6.514;2024-03-29T07:41:31;99085.53;;;15.07;57.69
82951;BME280;72737;53.332;6.514;2024-03-29T07:43:57;99091.66;;;15.04;57.52
82951;BME280;72737;53.332;6.514;2024-03-29T07:46:29;99088.59;;;15.06;57.86
82951;BME280;72737;53.332;6.514;2024-03-29T07:48:56;99093.97;;;15.02;57.63
82951;BME280;72737;53.332;6.514;2024-03-29T07:51:22;99096.22;;;15.00;57.25
82951;BME280;72737;53.332;6.514;2024-03-29T07:53:47;99091.22;;;15.02;57.35
82951;BME280;72737;53.332;6.514;2024-03-29T07:56:14;99088.94;;;15.04;57.53
82951;BME280;72737;53.332;6.514;2024-03-29T07:58:39;99098.72;;;15.05;57.57
82951;BME280;72737;53.332;6.514;2024-03-29T08:01:05;99103.41;;;15.04;57.35
82951;BME280;72737;53.332;6.514;2024-03-29T08:03:31;99110.38;;;15.02;57.02
82951;BME280;72737;53.332;6.514;2024-03-29T08:06:01;99124.50;;;15.04;57.00
82951;BME280;72737;53.332;6.514;2024-03-29T08:08:30;99125.50;;;14.99;56.69
82951;BME280;72737;53.332;6.514;2024-03-29T08:10:55;99133.72;;;14.99;56.88
82951;BME280;72737;53.332;6.514;2024-03-29T08:13:21;99133.63;;;14.96;56.75
82951;BME280;72737;53.332;6.514;2024-03-29T08:15:48;99137.03;;;14.93;56.65
82951;BME280;72737;53.332;6.514;2024-03-29T08:18:13;99139.41;;;14.94;56.06
82951;BME280;72737;53.332;6.514;2024-03-29T08:20:39;99145.91;;;14.90;56.19
82951;BME280;72737;53.332;6.514;2024-03-29T08:23:04;99150.78;;;14.84;55.51
82951;BME280;72737;53.332;6.514;2024-03-29T08:25:30;99150.69;;;14.81;55.79
82951;BME280;72737;53.332;6.514;2024-03-29T08:27:55;99149.75;;;14.77;55.23
82951;BME280;72737;53.332;6.514;2024-03-29T08:30:27;99152.50;;;14.77;55.63
82951;BME280;72737;53.332;6.514;2024-03-29T08:32:57;99148.63;;;14.78;55.04
82951;BME280;72737;53.332;6.514;2024-03-29T08:35:24;99153.31;;;14.77;55.01
82951;BME280;72737;53.332;6.514;2024-03-29T08:37:50;99149.28;;;14.75;54.81
82951;BME280;72737;53.332;6.514;2024-03-29T08:40:15;99143.03;;;14.74;54.83
82951;BME280;72737;53.332;6.514;2024-03-29T08:42:41;99165.59;;;14.71;54.39
82951;BME280;72737;53.332;6.514;2024-03-29T08:45:07;99152.25;;;14.70;54.67
82951;BME280;72737;53.332;6.514;2024-03-29T08:47:33;99150.63;;;14.69;54.22
82951;BME280;72737;53.332;6.514;2024-03-29T08:49:59;99170.56;;;14.69;54.10
82951;BME280;72737;53.332;6.514;2024-03-29T08:52:25;99165.00;;;14.66;54.26
82951;BME280;72737;53.332;6.514;2024-03-29T08:54:50;99170.94;;;14.68;53.99
82951;BME280;72737;53.332;6.514;2024-03-29T08:57:16;99160.00;;;14.68;54.57
82951;BME280;72737;53.332;6.514;2024-03-29T08:59:41;99166.59;;;14.67;54.15
82951;BME280;72737;53.332;6.514;2024-03-29T09:02:07;99181.06;;;14.67;54.08
82951;BME280;72737;53.332;6.514;2024-03-29T09:04:32;99179.47;;;14.66;53.81
82951;BME280;72737;53.332;6.514;2024-03-29T09:07:02;99160.66;;;14.65;54.39
82951;BME280;72737;53.332;6.514;2024-03-29T09:09:31;99153.25;;;14.65;54.50
82951;BME280;72737;53.332;6.514;2024-03-29T09:11:56;99147.34;;;14.63;54.13
82951;BME280;72737;53.332;6.514;2024-03-29T09:14:22;99139.59;;;14.65;53.82
82951;BME280;72737;53.332;6.514;2024-03-29T09:16:49;99147.00;;;14.65;54.22
82951;BME280;72737;53.332;6.514;2024-03-29T09:19:15;99150.19;;;14.67;54.01
82951;BME280;72737;53.332;6.514;2024-03-29T09:21:40;99161.47;;;14.65;53.71
82951;BME280;72737;53.332;6.514;2024-03-29T09:24:06;99166.13;;;14.65;53.96
82951;BME280;72737;53.332;6.514;2024-03-29T09:26:32;99179.00;;;14.64;53.79
82951;BME280;72737;53.332;6.514;2024-03-29T09:28:58;99166.94;;;14.65;53.86
82951;BME280;72737;53.332;6.514;2024-03-29T09:31:23;99174.81;;;14.67;53.58
82951;BME280;72737;53.332;6.514;2024-03-29T09:33:49;99177.88;;;14.65;54.21
82951;BME280;72737;53.332;6.514;2024-03-29T09:36:21;99152.00;;;14.63;54.00
82951;BME280;72737;53.332;6.514;2024-03-29T09:38:50;99149.28;;;14.63;53.69
82951;BME280;72737;53.332;6.514;2024-03-29T09:41:19;99167.72;;;14.66;53.75
82951;BME280;72737;53.332;6.514;2024-03-29T09:43:46;99149.72;;;14.65;53.60
82951;BME280;72737;53.332;6.514;2024-03-29T09:46:12;99153.63;;;14.64;53.54
82951;BME280;72737;53.332;6.514;2024-03-29T09:48:41;99159.19;;;14.67;53.63
82951;BME280;72737;53.332;6.514;2024-03-29T09:51:08;99165.78;;;14.66;53.57
82951;BME280;72737;53.332;6.514;2024-03-29T09:53:35;99162.59;;;14.64;53.94
82951;BME280;72737;53.332;6.514;2024-03-29T09:56:06;99159.09;;;14.64;53.78
82951;BME280;72737;53.332;6.514;2024-03-29T09:58:32;99158.72;;;14.65;54.11
82951;BME280;72737;53.332;6.514;2024-03-29T10:00:58;99167.41;;;14.67;53.89
82951;BME280;72737;53.332;6.514;2024-03-29T10:03:27;99172.06;;;14.67;53.65
82951;BME280;72737;53.332;6.514;2024-03-29T10:05:59;99183.81;;;14.67;53.68
82951;BME280;72737;53.332;6.514;2024-03-29T10:08:26;99180.94;;;14.64;53.98
82951;BME280;72737;53.332;6.514;2024-03-29T10:10:54;99178.78;;;14.69;53.78
82951;BME280;72737;53.332;6.514;2024-03-29T10:13:19;99187.56;;;14.75;54.25
82951;BME280;72737;53.332;6.514;2024-03-29T10:15:46;99171.16;;;14.75;54.12
82951;BME280;72737;53.332;6.514;2024-03-29T10:18:15;99172.78;;;14.76;54.19
82951;BME280;72737;53.332;6.514;2024-03-29T10:20:41;99188.69;;;14.74;53.87
82951;BME280;72737;53.332;6.514;2024-03-29T10:23:07;99196.91;;;14.74;54.45
82951;BME280;72737;53.332;6.514;2024-03-29T10:25:33;99200.66;;;14.69;54.60
82951;BME280;72737;53.332;6.514;2024-03-29T10:28:00;99203.38;;;14.69;54.42
82951;BME280;72737;53.332;6.514;2024-03-29T10:30:30;99197.38;;;14.76;53.93
82951;BME280;72737;53.332;6.514;2024-03-29T10:32:56;99201.72;;;14.77;54.11
82951;BME280;72737;53.332;6.514;2024-03-29T10:35:22;99205.69;;;14.79;53.75
82951;BME280;72737;53.332;6.514;2024-03-29T10:37:49;99199.09;;;14.80;53.73
82951;BME280;72737;53.332;6.514;2024-03-29T10:40:15;99189.28;;;14.79;53.80
82951;BME280;72737;53.332;6.514;2024-03-29T10:42:42;99178.34;;;14.79;53.55
82951;BME280;72737;53.332;6.514;2024-03-29T10:45:09;99184.63;;;14.80;53.66
82951;BME280;72737;53.332;6.514;2024-03-29T10:47:36;99187.84;;;14.82;54.27
82951;BME280;72737;53.332;6.514;2024-03-29T10:50:02;99180.75;;;14.81;54.25
82951;BME280;72737;53.332;6.514;2024-03-29T10:52:30;99180.75;;;14.81;53.94
82951;BME280;72737;53.332;6.514;2024-03-29T10:54:56;99178.50;;;14.83;53.84
82951;BME280;72737;53.332;6.514;2024-03-29T10:57:25;99186.50;;;14.88;53.93
82951;BME280;72737;53.332;6.514;2024-03-29T11:00:11;99178.63;;;14.86;54.16
82951;BME280;72737;53.332;6.514;2024-03-29T11:05:11;99192.53;;;14.93;54.19
82951;BME280;72737;53.332;6.514;2024-03-29T11:07:40;99187.50;;;14.95;54.09
82951;BME280;72737;53.332;6.514;2024-03-29T11:10:13;99198.34;;;14.92;53.93
82951;BME280;72737;53.332;6.514;2024-03-29T11:12:48;99199.94;;;14.93;54.52
82951;BME280;72737;53.332;6.514;2024-03-29T11:15:22;99201.31;;;14.99;54.06
82951;BME280;72737;53.332;6.514;2024-03-29T11:17:54;99209.97;;;15.01;54.39
82951;BME280;72737;53.332;6.514;2024-03-29T11:20:23;99200.88;;;14.97;54.06
82951;BME280;72737;53.332;6.514;2024-03-29T11:22:53;99210.69;;;14.98;54.52
82951;BME280;72737;53.332;6.514;2024-03-29T11:25:19;99208.59;;;14.95;53.91
82951;BME280;72737;53.332;6.514;2024-03-29T11:27:45;99221.13;;;14.96;54.21
82951;BME280;72737;53.332;6.514;2024-03-29T11:30:17;99204.41;;;14.97;53.81
82951;BME280;72737;53.332;6.514;2024-03-29T11:32:43;99203.72;;;15.00;53.78
82951;BME280;72737;53.332;6.514;2024-03-29T11:35:15;99210.78;;;15.01;54.12
82951;BME280;72737;53.332;6.514;2024-03-29T11:37:41;99211.59;;;15.02;54.18
82951;BME280;72737;53.332;6.514;2024-03-29T11:40:10;99228.00;;;15.02;53.78
82951;BME280;72737;53.332;6.514;2024-03-29T11:42:47;99221.84;;;15.05;53.60
82951;BME280;72737;53.332;6.514;2024-03-29T11:45:12;99221.84;;;15.05;53.88
82951;BME280;72737;53.332;6.514;2024-03-29T11:47:39;99234.06;;;15.08;54.05
82951;BME280;72737;53.332;6.514;2024-03-29T11:50:07;99248.53;;;15.08;54.42
82951;BME280;72737;53.332;6.514;2024-03-29T11:52:33;99235.31;;;15.10;54.34
82951;BME280;72737;53.332;6.514;2024-03-29T11:54:59;99229.50;;;15.12;54.10
82951;BME280;72737;53.332;6.514;2024-03-29T11:57:24;99227.91;;;15.11;53.87
82951;BME280;72737;53.332;6.514;2024-03-29T11:59:50;99225.97;;;15.11;53.58
82951;BME280;72737;53.332;6.514;2024-03-29T12:02:17;99222.44;;;15.11;54.02
82951;BME280;72737;53.332;6.514;2024-03-29T12:04:43;99228.22;;;15.09;53.68
82951;BME280;72737;53.332;6.514;2024-03-29T12:07:09;99224.84;;;15.12;53.99
82951;BME280;72737;53.332;6.514;2024-03-29T12:09:35;99219.38;;;15.12;54.04
82951;BME280;72737;53.332;6.514;2024-03-29T12:12:06;99222.09;;;15.12;54.18
82951;BME280;72737;53.332;6.514;2024-03-29T12:14:35;99224.16;;;15.15;54.22
82951;BME280;72737;53.332;6.514;2024-03-29T12:17:09;99232.72;;;15.14;53.50
82951;BME280;72737;53.332;6.514;2024-03-29T12:19:35;99238.97;;;15.14;53.94
82951;BME280;72737;53.332;6.514;2024-03-29T12:22:03;99236.69;;;15.16;53.52
82951;BME280;72737;53.332;6.514;2024-03-29T12:24:29;99232.50;;;15.19;53.36
82951;BME280;72737;53.332;6.514;2024-03-29T12:26:55;99228.97;;;15.18;53.62
82951;BME280;72737;53.332;6.514;2024-03-29T12:29:26;99252.09;;;15.21;53.45
82951;BME280;72737;53.332;6.514;2024-03-29T12:32:00;99250.84;;;15.18;53.72
82951;BME280;72737;53.332;6.514;2024-03-29T12:34:25;99250.50;;;15.20;53.17
82951;BME280;72737;53.332;6.514;2024-03-29T12:36:51;99262.22;;;15.20;53.36
82951;BME280;72737;53.332;6.514;2024-03-29T12:39:19;99271.56;;;15.19;52.95
82951;BME280;72737;53.332;6.514;2024-03-29T12:41:46;99278.22;;;15.18;53.30
82951;BME280;72737;53.332;6.514;2024-03-29T12:44:13;99275.00;;;15.16;53.09
82951;BME280;72737;53.332;6.514;2024-03-29T12:46:38;99268.41;;;15.17;53.09
82951;BME280;72737;53.332;6.514;2024-03-29T12:49:04;99276.59;;;15.17;53.19
82951;BME280;72737;53.332;6.514;2024-03-29T12:51:29;99270.00;;;15.18;53.08
82951;BME280;72737;53.332;6.514;2024-03-29T12:53:55;99259.50;;;15.20;53.14
82951;BME280;72737;53.332;6.514;2024-03-29T12:56:26;99271.25;;;15.21;53.33
82951;BME280;72737;53.332;6.514;2024-03-29T12:58:51;99267.38;;;15.22;52.93
82951;BME280;72737;53.332;6.514;2024-03-29T13:01:17;99282.31;;;15.24;53.39